sensor_id;sensor_type;location;lat;lon;timestamp;temperature;humidity
25839;DHT22;13669;50.186;27.062;2022-12-18T00:01:20;-3.30;99.90
25839;DHT22;13669;50.186;27.062;2022-12-18T00:03:49;-3.40;99.90
25839;DHT22;13669;50.186;27.062;2022-12-18T00:06:18;-3.40;99.90
25839;DHT22;13669;50.186;27.062;2022-12-18T00:08:47;-3.50;99.90
25839;DHT22;13669;50.186;27.062;2022-12-18T00:11:17;-3.50;99.90
25839;DHT22;13669;50.186;27.062;2022-12-18T00:13:45;-3.40;99.90
25839;DHT22;13669;50.186;27.062;2022-12-18T00:16:15;-3.30;99.90
25839;DHT22;13669;50.186;27.062;2022-12-18T00:18:43;-3.30;99.90
25839;DHT22;13669;50.186;27.062;2022-12-18T00:21:12;-3.40;99.90
25839;DHT22;13669;50.186;27.062;2022-12-18T00:23:42;-3.40;99.90
25839;DHT22;13669;50.186;27.062;2022-12-18T00:26:18;-3.50;99.90
25839;DHT22;13669;50.186;27.062;2022-12-18T00:28:46;-3.50;99.90
25839;DHT22;13669;50.186;27.062;2022-12-18T00:31:22;-3.30;99.90
25839;DHT22;13669;50.186;27.062;2022-12-18T00:33:50;-3.40;99.90
25839;DHT22;13669;50.186;27.062;2022-12-18T00:36:23;-3.30;99.90
25839;DHT22;13669;50.186;27.062;2022-12-18T00:38:51;-3.30;99.90
25839;DHT22;13669;50.186;27.062;2022-12-18T00:41:20;-3.30;99.90
25839;DHT22;13669;50.186;27.062;2022-12-18T00:44:08;-3.40;99.90
25839;DHT22;13669;50.186;27.062;2022-12-18T00:46:36;-3.50;99.90
25839;DHT22;13669;50.186;27.062;2022-12-18T00:49:04;-3.50;99.90
25839;DHT22;13669;50.186;27.062;2022-12-18T00:51:31;-3.50;99.90
25839;DHT22;13669;50.186;27.062;2022-12-18T00:53:59;-3.60;99.90
25839;DHT22;13669;50.186;27.062;2022-12-18T00:56:26;-3.50;99.90
25839;DHT22;13669;50.186;27.062;2022-12-18T00:58:54;-3.50;99.90
25839;DHT22;13669;50.186;27.062;2022-12-18T01:01:21;-3.50;99.90
25839;DHT22;13669;50.186;27.062;2022-12-18T01:03:49;-3.60;99.90
25839;DHT22;13669;50.186;27.062;2022-12-18T01:06:17;-3.60;99.90
25839;DHT22;13669;50.186;27.062;2022-12-18T01:08:44;-3.60;99.90
25839;DHT22;13669;50.186;27.062;2022-12-18T01:11:15;-3.70;99.90
25839;DHT22;13669;50.186;27.062;2022-12-18T01:13:43;-3.70;99.90
25839;DHT22;13669;50.186;27.062;2022-12-18T01:16:12;-3.80;99.90
25839;DHT22;13669;50.186;27.062;2022-12-18T01:18:40;-3.80;99.90
25839;DHT22;13669;50.186;27.062;2022-12-18T01:21:10;-3.70;99.90
25839;DHT22;13669;50.186;27.062;2022-12-18T01:23:38;-3.80;99.90
25839;DHT22;13669;50.186;27.062;2022-12-18T01:26:12;-3.80;99.90
25839;DHT22;13669;50.186;27.062;2022-12-18T01:28:40;-3.80;99.90
25839;DHT22;13669;50.186;27.062;2022-12-18T01:34:05;-3.70;99.90
25839;DHT22;13669;50.186;27.062;2022-12-18T01:36:35;-3.90;99.90
25839;DHT22;13669;50.186;27.062;2022-12-18T01:39:06;-3.90;99.90
25839;DHT22;13669;50.186;27.062;2022-12-18T01:41:34;-3.80;99.90
25839;DHT22;13669;50.186;27.062;2022-12-18T01:47:43;-3.80;99.90
25839;DHT22;13669;50.186;27.062;2022-12-18T01:52:53;-3.80;99.90
25839;DHT22;13669;50.186;27.062;2022-12-18T01:55:24;-3.80;99.90
25839;DHT22;13669;50.186;27.062;2022-12-18T01:57:54;-3.90;99.90
25839;DHT22;13669;50.186;27.062;2022-12-18T02:00:23;-3.90;99.90
25839;DHT22;13669;50.186;27.062;2022-12-18T02:02:50;-3.90;99.90
25839;DHT22;13669;50.186;27.062;2022-12-18T02:05:38;-4.00;99.90
25839;DHT22;13669;50.186;27.062;2022-12-18T02:10:57;-3.80;99.90
25839;DHT22;13669;50.186;27.062;2022-12-18T02:13:53;-3.80;99.90
25839;DHT22;13669;50.186;27.062;2022-12-18T02:16:46;-3.80;99.90
25839;DHT22;13669;50.186;27.062;2022-12-18T02:19:36;-3.90;99.90
25839;DHT22;13669;50.186;27.062;2022-12-18T02:22:46;-3.90;99.90
25839;DHT22;13669;50.186;27.062;2022-12-18T02:28:25;-3.90;99.90
25839;DHT22;13669;50.186;27.062;2022-12-18T02:30:53;-3.90;99.90
25839;DHT22;13669;50.186;27.062;2022-12-18T02:33:23;-4.00;99.90
25839;DHT22;13669;50.186;27.062;2022-12-18T02:35:53;-4.00;99.90
25839;DHT22;13669;50.186;27.062;2022-12-18T02:38:22;-3.80;99.90
25839;DHT22;13669;50.186;27.062;2022-12-18T02:40:53;-4.00;99.90
25839;DHT22;13669;50.186;27.062;2022-12-18T02:43:20;-4.00;99.90
25839;DHT22;13669;50.186;27.062;2022-12-18T02:45:53;-3.90;99.90
25839;DHT22;13669;50.186;27.062;2022-12-18T02:48:29;-3.90;99.90
25839;DHT22;13669;50.186;27.062;2022-12-18T02:53:51;-4.00;99.90
25839;DHT22;13669;50.186;27.062;2022-12-18T02:56:28;-3.90;99.90
25839;DHT22;13669;50.186;27.062;2022-12-18T02:59:11;-4.00;99.90
25839;DHT22;13669;50.186;27.062;2022-12-18T03:01:54;-3.90;99.90
25839;DHT22;13669;50.186;27.062;2022-12-18T03:06:53;-3.80;99.90
25839;DHT22;13669;50.186;27.062;2022-12-18T03:09:28;-3.80;99.90
25839;DHT22;13669;50.186;27.062;2022-12-18T03:12:04;-3.80;99.90
25839;DHT22;13669;50.186;27.062;2022-12-18T03:17:34;-3.90;99.90
25839;DHT22;13669;50.186;27.062;2022-12-18T03:20:07;-3.60;99.90
25839;DHT22;13669;50.186;27.062;2022-12-18T03:22:37;-3.90;99.90
25839;DHT22;13669;50.186;27.062;2022-12-18T03:25:08;-3.90;99.90
25839;DHT22;13669;50.186;27.062;2022-12-18T03:27:40;-3.90;99.90
25839;DHT22;13669;50.186;27.062;2022-12-18T03:30:10;-3.90;99.90
25839;DHT22;13669;50.186;27.062;2022-12-18T03:35:40;-4.00;99.90
25839;DHT22;13669;50.186;27.062;2022-12-18T03:38:09;-3.90;99.90
25839;DHT22;13669;50.186;27.062;2022-12-18T03:49:26;-4.10;99.90
25839;DHT22;13669;50.186;27.062;2022-12-18T03:54:32;-4.00;99.90
25839;DHT22;13669;50.186;27.062;2022-12-18T03:57:07;-4.00;99.90
25839;DHT22;13669;50.186;27.062;2022-12-18T03:59:35;-4.00;99.90
25839;DHT22;13669;50.186;27.062;2022-12-18T04:02:05;-4.10;99.90
25839;DHT22;13669;50.186;27.062;2022-12-18T04:04:34;-4.00;99.90
25839;DHT22;13669;50.186;27.062;2022-12-18T04:07:03;-3.90;99.90
25839;DHT22;13669;50.186;27.062;2022-12-18T04:09:32;-4.00;99.90
25839;DHT22;13669;50.186;27.062;2022-12-18T04:12:00;-4.00;99.90
25839;DHT22;13669;50.186;27.062;2022-12-18T04:14:27;-4.00;99.90
25839;DHT22;13669;50.186;27.062;2022-12-18T04:16:54;-4.00;99.90
25839;DHT22;13669;50.186;27.062;2022-12-18T04:19:22;-3.90;99.90
25839;DHT22;13669;50.186;27.062;2022-12-18T04:21:49;-4.00;99.90
25839;DHT22;13669;50.186;27.062;2022-12-18T04:24:17;-4.00;99.90
25839;DHT22;13669;50.186;27.062;2022-12-18T04:26:44;-4.00;99.90
25839;DHT22;13669;50.186;27.062;2022-12-18T04:29:12;-3.90;99.90
25839;DHT22;13669;50.186;27.062;2022-12-18T04:31:39;-3.90;99.90
25839;DHT22;13669;50.186;27.062;2022-12-18T04:34:07;-4.00;99.90
25839;DHT22;13669;50.186;27.062;2022-12-18T04:36:34;-3.90;99.90
25839;DHT22;13669;50.186;27.062;2022-12-18T04:39:02;-4.00;99.90
25839;DHT22;13669;50.186;27.062;2022-12-18T04:41:29;-3.90;99.90
25839;DHT22;13669;50.186;27.062;2022-12-18T04:43:57;-3.70;99.90
25839;DHT22;13669;50.186;27.062;2022-12-18T04:46:24;-3.90;99.90
25839;DHT22;13669;50.186;27.062;2022-12-18T04:48:52;-3.90;99.90
25839;DHT22;13669;50.186;27.062;2022-12-18T04:51:19;-3.90;99.90
25839;DHT22;13669;50.186;27.062;2022-12-18T04:53:53;-3.90;99.90
25839;DHT22;13669;50.186;27.062;2022-12-18T04:56:21;-3.90;99.90
25839;DHT22;13669;50.186;27.062;2022-12-18T04:58:49;-3.90;99.90
25839;DHT22;13669;50.186;27.062;2022-12-18T05:01:17;-3.70;99.90
25839;DHT22;13669;50.186;27.062;2022-12-18T05:03:45;-3.90;99.90
25839;DHT22;13669;50.186;27.062;2022-12-18T05:06:13;-3.90;99.90
25839;DHT22;13669;50.186;27.062;2022-12-18T05:08:40;-3.90;99.90
25839;DHT22;13669;50.186;27.062;2022-12-18T05:11:13;-3.90;99.90
25839;DHT22;13669;50.186;27.062;2022-12-18T05:13:44;-4.00;99.90
25839;DHT22;13669;50.186;27.062;2022-12-18T05:16:13;-4.10;99.90
25839;DHT22;13669;50.186;27.062;2022-12-18T05:18:41;-4.00;99.90
25839;DHT22;13669;50.186;27.062;2022-12-18T05:21:08;-3.90;99.90
25839;DHT22;13669;50.186;27.062;2022-12-18T05:23:36;-3.90;99.90
25839;DHT22;13669;50.186;27.062;2022-12-18T05:26:06;-4.00;99.90
25839;DHT22;13669;50.186;27.062;2022-12-18T05:28:35;-4.00;99.90
25839;DHT22;13669;50.186;27.062;2022-12-18T05:31:04;-4.00;99.90
25839;DHT22;13669;50.186;27.062;2022-12-18T05:33:34;-3.90;99.90
25839;DHT22;13669;50.186;27.062;2022-12-18T05:36:04;-3.90;99.90
25839;DHT22;13669;50.186;27.062;2022-12-18T05:38:34;-3.90;99.90
25839;DHT22;13669;50.186;27.062;2022-12-18T05:41:02;-3.90;99.90
25839;DHT22;13669;50.186;27.062;2022-12-18T05:43:30;-3.80;99.90
25839;DHT22;13669;50.186;27.062;2022-12-18T05:45:57;-3.80;99.90
25839;DHT22;13669;50.186;27.062;2022-12-18T05:48:25;-3.90;99.90
25839;DHT22;13669;50.186;27.062;2022-12-18T05:50:52;-3.90;99.90
25839;DHT22;13669;50.186;27.062;2022-12-18T05:53:20;-3.90;99.90
25839;DHT22;13669;50.186;27.062;2022-12-18T05:55:48;-3.90;99.90
25839;DHT22;13669;50.186;27.062;2022-12-18T05:58:16;-3.90;99.90
25839;DHT22;13669;50.186;27.062;2022-12-18T06:00:45;-3.90;99.90
25839;DHT22;13669;50.186;27.062;2022-12-18T06:03:13;-3.80;99.90
25839;DHT22;13669;50.186;27.062;2022-12-18T06:05:43;-3.80;99.90
25839;DHT22;13669;50.186;27.062;2022-12-18T06:08:12;-3.90;99.90
25839;DHT22;13669;50.186;27.062;2022-12-18T06:10:41;-3.80;99.90
25839;DHT22;13669;50.186;27.062;2022-12-18T06:13:08;-3.90;99.90
25839;DHT22;13669;50.186;27.062;2022-12-18T06:15:36;-3.80;99.90
25839;DHT22;13669;50.186;27.062;2022-12-18T06:18:04;-3.90;99.90
25839;DHT22;13669;50.186;27.062;2022-12-18T06:20:32;-3.90;99.90
25839;DHT22;13669;50.186;27.062;2022-12-18T06:23:00;-3.90;99.90
25839;DHT22;13669;50.186;27.062;2022-12-18T06:25:27;-3.90;99.90
25839;DHT22;13669;50.186;27.062;2022-12-18T06:27:55;-3.80;99.90
25839;DHT22;13669;50.186;27.062;2022-12-18T06:30:22;-3.90;99.90
25839;DHT22;13669;50.186;27.062;2022-12-18T06:32:50;-3.80;99.90
25839;DHT22;13669;50.186;27.062;2022-12-18T06:35:23;-3.80;99.90
25839;DHT22;13669;50.186;27.062;2022-12-18T06:37:51;-3.70;99.90
25839;DHT22;13669;50.186;27.062;2022-12-18T06:40:18;-3.70;99.90
25839;DHT22;13669;50.186;27.062;2022-12-18T06:42:46;-3.80;99.90
25839;DHT22;13669;50.186;27.062;2022-12-18T06:45:13;-3.70;99.90
25839;DHT22;13669;50.186;27.062;2022-12-18T06:47:41;-3.70;99.90
25839;DHT22;13669;50.186;27.062;2022-12-18T06:50:08;-3.60;99.90
25839;DHT22;13669;50.186;27.062;2022-12-18T06:52:36;-3.60;99.90
25839;DHT22;13669;50.186;27.062;2022-12-18T06:55:04;-3.60;99.90
25839;DHT22;13669;50.186;27.062;2022-12-18T06:57:32;-3.60;99.90
25839;DHT22;13669;50.186;27.062;2022-12-18T06:59:59;-3.50;99.90
25839;DHT22;13669;50.186;27.062;2022-12-18T07:02:27;-3.40;99.90
25839;DHT22;13669;50.186;27.062;2022-12-18T07:04:54;-3.50;99.90
25839;DHT22;13669;50.186;27.062;2022-12-18T07:07:22;-3.50;99.90
25839;DHT22;13669;50.186;27.062;2022-12-18T07:09:50;-3.60;99.90
25839;DHT22;13669;50.186;27.062;2022-12-18T07:12:18;-3.60;99.90
25839;DHT22;13669;50.186;27.062;2022-12-18T07:14:45;-3.60;99.90
25839;DHT22;13669;50.186;27.062;2022-12-18T07:17:13;-3.60;99.90
25839;DHT22;13669;50.186;27.062;2022-12-18T07:19:40;-3.60;99.90
25839;DHT22;13669;50.186;27.062;2022-12-18T07:22:08;-3.50;99.90
25839;DHT22;13669;50.186;27.062;2022-12-18T07:24:35;-3.50;99.90
25839;DHT22;13669;50.186;27.062;2022-12-18T07:27:03;-3.40;99.90
25839;DHT22;13669;50.186;27.062;2022-12-18T07:29:30;-3.40;99.90
25839;DHT22;13669;50.186;27.062;2022-12-18T07:31:58;-3.40;99.90
25839;DHT22;13669;50.186;27.062;2022-12-18T07:34:25;-3.50;99.90
25839;DHT22;13669;50.186;27.062;2022-12-18T07:36:53;-3.50;99.90
25839;DHT22;13669;50.186;27.062;2022-12-18T07:39:20;-3.50;99.90
25839;DHT22;13669;50.186;27.062;2022-12-18T07:41:48;-3.50;99.90
25839;DHT22;13669;50.186;27.062;2022-12-18T07:44:35;-3.50;99.90
25839;DHT22;13669;50.186;27.062;2022-12-18T07:47:03;-3.40;99.90
25839;DHT22;13669;50.186;27.062;2022-12-18T07:49:38;-3.40;99.90
25839;DHT22;13669;50.186;27.062;2022-12-18T07:52:05;-3.40;99.90
25839;DHT22;13669;50.186;27.062;2022-12-18T07:54:32;-3.40;99.90
25839;DHT22;13669;50.186;27.062;2022-12-18T07:57:00;-3.40;99.90
25839;DHT22;13669;50.186;27.062;2022-12-18T07:59:27;-3.50;99.90
25839;DHT22;13669;50.186;27.062;2022-12-18T08:01:54;-3.50;99.90
25839;DHT22;13669;50.186;27.062;2022-12-18T08:04:22;-3.50;99.90
25839;DHT22;13669;50.186;27.062;2022-12-18T08:06:50;-3.50;99.90
25839;DHT22;13669;50.186;27.062;2022-12-18T08:09:17;-3.50;99.90
25839;DHT22;13669;50.186;27.062;2022-12-18T08:11:45;-3.40;99.90
25839;DHT22;13669;50.186;27.062;2022-12-18T08:14:12;-3.40;99.90
25839;DHT22;13669;50.186;27.062;2022-12-18T08:16:40;-3.30;99.90
25839;DHT22;13669;50.186;27.062;2022-12-18T08:19:08;-3.30;99.90
25839;DHT22;13669;50.186;27.062;2022-12-18T08:21:35;-3.30;99.90
25839;DHT22;13669;50.186;27.062;2022-12-18T08:24:04;-3.20;99.90
25839;DHT22;13669;50.186;27.062;2022-12-18T08:26:32;-3.30;99.90
25839;DHT22;13669;50.186;27.062;2022-12-18T08:29:00;-3.20;99.90
25839;DHT22;13669;50.186;27.062;2022-12-18T08:31:29;-3.20;99.90
25839;DHT22;13669;50.186;27.062;2022-12-18T08:33:57;-3.30;99.90
25839;DHT22;13669;50.186;27.062;2022-12-18T08:36:25;-3.20;99.90
25839;DHT22;13669;50.186;27.062;2022-12-18T08:38:53;-3.30;99.90
25839;DHT22;13669;50.186;27.062;2022-12-18T08:41:21;-3.20;99.90
25839;DHT22;13669;50.186;27.062;2022-12-18T08:43:49;-3.20;99.90
25839;DHT22;13669;50.186;27.062;2022-12-18T08:46:38;-3.30;99.90
25839;DHT22;13669;50.186;27.062;2022-12-18T08:49:06;-3.30;99.90
25839;DHT22;13669;50.186;27.062;2022-12-18T08:51:35;-3.20;99.90
25839;DHT22;13669;50.186;27.062;2022-12-18T08:54:03;-3.10;99.90
25839;DHT22;13669;50.186;27.062;2022-12-18T08:56:32;-3.20;99.90
25839;DHT22;13669;50.186;27.062;2022-12-18T08:59:01;-3.20;99.90
25839;DHT22;13669;50.186;27.062;2022-12-18T09:01:29;-3.30;99.90
25839;DHT22;13669;50.186;27.062;2022-12-18T09:03:58;-3.20;99.90
25839;DHT22;13669;50.186;27.062;2022-12-18T09:06:25;-3.20;99.90
25839;DHT22;13669;50.186;27.062;2022-12-18T09:08:53;-3.20;99.90
25839;DHT22;13669;50.186;27.062;2022-12-18T09:11:26;-3.20;99.90
25839;DHT22;13669;50.186;27.062;2022-12-18T09:13:55;-3.20;99.90
25839;DHT22;13669;50.186;27.062;2022-12-18T09:16:24;-3.20;99.90
25839;DHT22;13669;50.186;27.062;2022-12-18T09:18:59;-3.10;99.90
25839;DHT22;13669;50.186;27.062;2022-12-18T09:21:29;-3.10;99.90
25839;DHT22;13669;50.186;27.062;2022-12-18T09:23:59;-3.20;99.90
25839;DHT22;13669;50.186;27.062;2022-12-18T09:26:27;-3.20;99.90
25839;DHT22;13669;50.186;27.062;2022-12-18T09:28:54;-3.20;99.90
25839;DHT22;13669;50.186;27.062;2022-12-18T09:31:23;-3.20;99.90
25839;DHT22;13669;50.186;27.062;2022-12-18T09:33:51;-3.20;99.90
25839;DHT22;13669;50.186;27.062;2022-12-18T09:36:19;-3.20;99.90
25839;DHT22;13669;50.186;27.062;2022-12-18T09:38:47;-3.00;99.90
25839;DHT22;13669;50.186;27.062;2022-12-18T09:43:58;-3.00;99.90
25839;DHT22;13669;50.186;27.062;2022-12-18T09:46:30;-3.00;99.90
25839;DHT22;13669;50.186;27.062;2022-12-18T09:49:02;-2.90;99.90
25839;DHT22;13669;50.186;27.062;2022-12-18T09:51:37;-2.80;99.90
25839;DHT22;13669;50.186;27.062;2022-12-18T09:54:13;-2.80;99.90
25839;DHT22;13669;50.186;27.062;2022-12-18T09:56:42;-2.90;99.90
25839;DHT22;13669;50.186;27.062;2022-12-18T09:59:34;-3.10;99.90
25839;DHT22;13669;50.186;27.062;2022-12-18T10:02:19;-2.90;99.90
25839;DHT22;13669;50.186;27.062;2022-12-18T10:15:43;-3.10;99.90
25839;DHT22;13669;50.186;27.062;2022-12-18T10:21:05;-3.10;99.90
25839;DHT22;13669;50.186;27.062;2022-12-18T10:26:20;-3.20;99.90
25839;DHT22;13669;50.186;27.062;2022-12-18T10:28:48;-3.30;99.90
25839;DHT22;13669;50.186;27.062;2022-12-18T10:31:22;-3.20;99.90
25839;DHT22;13669;50.186;27.062;2022-12-18T10:33:53;-3.20;99.90
25839;DHT22;13669;50.186;27.062;2022-12-18T10:36:23;-3.40;99.90
25839;DHT22;13669;50.186;27.062;2022-12-18T10:38:51;-3.50;99.90
25839;DHT22;13669;50.186;27.062;2022-12-18T10:43:48;-3.40;99.90
25839;DHT22;13669;50.186;27.062;2022-12-18T10:46:17;-3.50;99.90
25839;DHT22;13669;50.186;27.062;2022-12-18T10:51:21;-3.70;99.90
25839;DHT22;13669;50.186;27.062;2022-12-18T10:54:04;-3.70;99.90
25839;DHT22;13669;50.186;27.062;2022-12-18T10:56:36;-3.90;99.90
25839;DHT22;13669;50.186;27.062;2022-12-18T10:59:10;-3.90;99.90
25839;DHT22;13669;50.186;27.062;2022-12-18T11:01:49;-3.80;99.90
25839;DHT22;13669;50.186;27.062;2022-12-18T11:04:26;-3.90;99.90
25839;DHT22;13669;50.186;27.062;2022-12-18T11:07:02;-3.90;99.90
25839;DHT22;13669;50.186;27.062;2022-12-18T11:09:35;-3.80;99.90
25839;DHT22;13669;50.186;27.062;2022-12-18T11:12:14;-3.70;99.90
25839;DHT22;13669;50.186;27.062;2022-12-18T11:14:48;-3.60;99.90
25839;DHT22;13669;50.186;27.062;2022-12-18T11:17:29;-3.70;99.90
25839;DHT22;13669;50.186;27.062;2022-12-18T11:19:59;-3.60;99.90
25839;DHT22;13669;50.186;27.062;2022-12-18T11:22:33;-3.60;99.90
25839;DHT22;13669;50.186;27.062;2022-12-18T11:25:22;-3.70;99.90
25839;DHT22;13669;50.186;27.062;2022-12-18T11:30:49;-3.70;99.90
25839;DHT22;13669;50.186;27.062;2022-12-18T11:33:35;-4.00;99.90
25839;DHT22;13669;50.186;27.062;2022-12-18T11:36:07;-4.10;99.90
25839;DHT22;13669;50.186;27.062;2022-12-18T11:38:39;-4.10;99.90
25839;DHT22;13669;50.186;27.062;2022-12-18T11:43:58;-4.20;99.90
25839;DHT22;13669;50.186;27.062;2022-12-18T11:46:33;-4.20;99.90
25839;DHT22;13669;50.186;27.062;2022-12-18T11:49:14;-4.10;99.90
25839;DHT22;13669;50.186;27.062;2022-12-18T11:54:24;-4.10;99.90
25839;DHT22;13669;50.186;27.062;2022-12-18T11:57:29;-4.20;99.90
25839;DHT22;13669;50.186;27.062;2022-12-18T12:00:10;-4.20;99.90
25839;DHT22;13669;50.186;27.062;2022-12-18T12:03:00;-4.40;99.90
25839;DHT22;13669;50.186;27.062;2022-12-18T12:05:45;-4.40;99.90
25839;DHT22;13669;50.186;27.062;2022-12-18T12:22:42;-4.30;99.90
25839;DHT22;13669;50.186;27.062;2022-12-18T12:25:30;-4.30;99.90
25839;DHT22;13669;50.186;27.062;2022-12-18T12:34:00;-4.50;99.90
25839;DHT22;13669;50.186;27.062;2022-12-18T12:39:29;-4.80;99.90
25839;DHT22;13669;50.186;27.062;2022-12-18T12:41:57;-4.70;99.90
25839;DHT22;13669;50.186;27.062;2022-12-18T12:44:48;-4.80;99.90
25839;DHT22;13669;50.186;27.062;2022-12-18T12:47:35;-4.70;99.90
25839;DHT22;13669;50.186;27.062;2022-12-18T12:50:12;-4.80;99.90
25839;DHT22;13669;50.186;27.062;2022-12-18T12:52:45;-4.80;99.90
25839;DHT22;13669;50.186;27.062;2022-12-18T12:55:24;-4.80;99.90
25839;DHT22;13669;50.186;27.062;2022-12-18T12:58:06;-4.60;99.90
25839;DHT22;13669;50.186;27.062;2022-12-18T13:00:52;-4.60;99.90
25839;DHT22;13669;50.186;27.062;2022-12-18T13:07:12;-4.70;99.90
25839;DHT22;13669;50.186;27.062;2022-12-18T13:10:11;-4.70;99.90
25839;DHT22;13669;50.186;27.062;2022-12-18T13:15:46;-4.80;99.90
25839;DHT22;13669;50.186;27.062;2022-12-18T13:18:18;-4.80;99.90
25839;DHT22;13669;50.186;27.062;2022-12-18T13:23:32;-5.00;99.90
25839;DHT22;13669;50.186;27.062;2022-12-18T13:31:01;-4.80;99.90
25839;DHT22;13669;50.186;27.062;2022-12-18T13:36:16;-4.70;99.90
25839;DHT22;13669;50.186;27.062;2022-12-18T13:39:31;-4.90;99.90
25839;DHT22;13669;50.186;27.062;2022-12-18T13:44:40;-4.80;99.90
25839;DHT22;13669;50.186;27.062;2022-12-18T13:47:32;-5.00;99.90
25839;DHT22;13669;50.186;27.062;2022-12-18T13:50:03;-5.00;99.90
25839;DHT22;13669;50.186;27.062;2022-12-18T13:52:39;-5.10;99.90
25839;DHT22;13669;50.186;27.062;2022-12-18T13:55:15;-5.00;99.90
25839;DHT22;13669;50.186;27.062;2022-12-18T13:57:44;-5.10;99.90
25839;DHT22;13669;50.186;27.062;2022-12-18T14:02:50;-5.10;99.90
25839;DHT22;13669;50.186;27.062;2022-12-18T14:05:25;-4.80;99.90
25839;DHT22;13669;50.186;27.062;2022-12-18T14:07:54;-5.10;99.90
25839;DHT22;13669;50.186;27.062;2022-12-18T14:10:23;-5.10;99.90
25839;DHT22;13669;50.186;27.062;2022-12-18T14:13:17;-5.10;99.90
25839;DHT22;13669;50.186;27.062;2022-12-18T14:15:48;-5.10;99.90
25839;DHT22;13669;50.186;27.062;2022-12-18T14:20:50;-5.10;99.90
25839;DHT22;13669;50.186;27.062;2022-12-18T14:23:39;-5.10;99.90
25839;DHT22;13669;50.186;27.062;2022-12-18T14:26:27;-5.10;99.90
25839;DHT22;13669;50.186;27.062;2022-12-18T14:28:57;-5.30;99.90
25839;DHT22;13669;50.186;27.062;2022-12-18T14:31:27;-5.20;99.90
25839;DHT22;13669;50.186;27.062;2022-12-18T14:33:55;-5.20;99.90
25839;DHT22;13669;50.186;27.062;2022-12-18T14:36:27;-5.20;99.90
25839;DHT22;13669;50.186;27.062;2022-12-18T14:38:57;-4.90;99.90
25839;DHT22;13669;50.186;27.062;2022-12-18T14:41:26;-5.10;99.90
25839;DHT22;13669;50.186;27.062;2022-12-18T14:43:54;-5.10;99.90
25839;DHT22;13669;50.186;27.062;2022-12-18T14:46:38;-5.10;99.90
25839;DHT22;13669;50.186;27.062;2022-12-18T14:49:32;-5.10;99.90
25839;DHT22;13669;50.186;27.062;2022-12-18T14:52:05;-5.20;99.90
25839;DHT22;13669;50.186;27.062;2022-12-18T14:54:35;-5.20;99.90
25839;DHT22;13669;50.186;27.062;2022-12-18T14:57:06;-5.40;99.90
25839;DHT22;13669;50.186;27.062;2022-12-18T14:59:40;-5.30;99.90
25839;DHT22;13669;50.186;27.062;2022-12-18T15:04:46;-5.30;99.90
25839;DHT22;13669;50.186;27.062;2022-12-18T15:10:10;-5.20;99.90
25839;DHT22;13669;50.186;27.062;2022-12-18T15:18:23;-5.20;99.90
25839;DHT22;13669;50.186;27.062;2022-12-18T15:20:55;-5.30;99.90
25839;DHT22;13669;50.186;27.062;2022-12-18T15:23:28;-5.20;99.90
25839;DHT22;13669;50.186;27.062;2022-12-18T15:33:58;-5.20;99.90
25839;DHT22;13669;50.186;27.062;2022-12-18T15:36:26;-5.30;99.90
25839;DHT22;13669;50.186;27.062;2022-12-18T15:38:57;-5.30;99.90
25839;DHT22;13669;50.186;27.062;2022-12-18T15:41:35;-5.30;99.90
25839;DHT22;13669;50.186;27.062;2022-12-18T15:44:22;-5.30;99.90
25839;DHT22;13669;50.186;27.062;2022-12-18T15:46:50;-5.40;99.90
25839;DHT22;13669;50.186;27.062;2022-12-18T15:49:17;-5.30;99.90
25839;DHT22;13669;50.186;27.062;2022-12-18T15:51:52;-5.30;99.90
25839;DHT22;13669;50.186;27.062;2022-12-18T15:54:20;-5.20;99.90
25839;DHT22;13669;50.186;27.062;2022-12-18T15:57:11;-5.10;99.90
25839;DHT22;13669;50.186;27.062;2022-12-18T15:59:53;-5.20;99.90
25839;DHT22;13669;50.186;27.062;2022-12-18T16:02:21;-5.20;99.90
25839;DHT22;13669;50.186;27.062;2022-12-18T16:04:51;-5.20;99.90
25839;DHT22;13669;50.186;27.062;2022-12-18T16:07:19;-5.20;99.90
25839;DHT22;13669;50.186;27.062;2022-12-18T16:09:51;-5.20;99.90
25839;DHT22;13669;50.186;27.062;2022-12-18T16:12:22;-5.20;99.90
25839;DHT22;13669;50.186;27.062;2022-12-18T16:14:51;-5.20;99.90
25839;DHT22;13669;50.186;27.062;2022-12-18T16:17:19;-5.20;99.90
25839;DHT22;13669;50.186;27.062;2022-12-18T16:19:47;-5.20;99.90
25839;DHT22;13669;50.186;27.062;2022-12-18T16:22:21;-5.20;99.90
25839;DHT22;13669;50.186;27.062;2022-12-18T16:24:50;-5.20;99.90
25839;DHT22;13669;50.186;27.062;2022-12-18T16:27:18;-5.20;99.90
25839;DHT22;13669;50.186;27.062;2022-12-18T16:29:45;-5.20;99.90
25839;DHT22;13669;50.186;27.062;2022-12-18T16:32:17;-5.30;99.90
25839;DHT22;13669;50.186;27.062;2022-12-18T16:34:45;-5.30;99.90
25839;DHT22;13669;50.186;27.062;2022-12-18T16:37:14;-5.40;99.90
25839;DHT22;13669;50.186;27.062;2022-12-18T16:39:43;-5.30;99.90
25839;DHT22;13669;50.186;27.062;2022-12-18T16:42:18;-5.40;99.90
25839;DHT22;13669;50.186;27.062;2022-12-18T16:44:47;-5.50;99.90
25839;DHT22;13669;50.186;27.062;2022-12-18T16:47:16;-5.50;99.90
25839;DHT22;13669;50.186;27.062;2022-12-18T16:49:45;-5.40;99.90
25839;DHT22;13669;50.186;27.062;2022-12-18T16:52:13;-5.50;99.90
25839;DHT22;13669;50.186;27.062;2022-12-18T16:54:40;-5.50;99.90
25839;DHT22;13669;50.186;27.062;2022-12-18T16:57:13;-5.50;99.90
25839;DHT22;13669;50.186;27.062;2022-12-18T16:59:41;-5.50;99.90
25839;DHT22;13669;50.186;27.062;2022-12-18T17:04:46;-5.60;99.90
25839;DHT22;13669;50.186;27.062;2022-12-18T17:07:14;-5.80;99.90
25839;DHT22;13669;50.186;27.062;2022-12-18T17:09:42;-5.80;99.90
25839;DHT22;13669;50.186;27.062;2022-12-18T17:12:10;-5.90;99.90
25839;DHT22;13669;50.186;27.062;2022-12-18T17:14:37;-5.90;99.90
25839;DHT22;13669;50.186;27.062;2022-12-18T17:17:05;-5.90;99.90
25839;DHT22;13669;50.186;27.062;2022-12-18T17:19:51;-5.80;99.90
25839;DHT22;13669;50.186;27.062;2022-12-18T17:22:20;-5.80;99.90
25839;DHT22;13669;50.186;27.062;2022-12-18T17:24:48;-6.00;99.90
25839;DHT22;13669;50.186;27.062;2022-12-18T17:27:15;-6.00;99.90
25839;DHT22;13669;50.186;27.062;2022-12-18T17:29:43;-6.00;99.90
25839;DHT22;13669;50.186;27.062;2022-12-18T17:32:15;-6.00;99.90
25839;DHT22;13669;50.186;27.062;2022-12-18T17:34:43;-6.00;99.90
25839;DHT22;13669;50.186;27.062;2022-12-18T17:37:11;-6.10;99.90
25839;DHT22;13669;50.186;27.062;2022-12-18T17:39:39;-6.10;99.90
25839;DHT22;13669;50.186;27.062;2022-12-18T17:42:06;-6.10;99.90
25839;DHT22;13669;50.186;27.062;2022-12-18T17:44:42;-6.00;99.90
25839;DHT22;13669;50.186;27.062;2022-12-18T17:47:11;-6.00;99.90
25839;DHT22;13669;50.186;27.062;2022-12-18T17:49:39;-6.00;99.90
25839;DHT22;13669;50.186;27.062;2022-12-18T17:52:06;-6.10;99.90
25839;DHT22;13669;50.186;27.062;2022-12-18T17:54:34;-5.90;99.90
25839;DHT22;13669;50.186;27.062;2022-12-18T17:57:06;-6.10;99.90
25839;DHT22;13669;50.186;27.062;2022-12-18T17:59:33;-5.70;99.90
25839;DHT22;13669;50.186;27.062;2022-12-18T18:02:01;-6.00;99.90